sensor_id;sensor_type;location;lat;lon;timestamp;pressure;altitude;pressure_sealevel;temperature;humidity
59194;BME280;44967;48.598;15.650;2024-02-23T00:00:41;96264.75;;;6.25;99.73
59194;BME280;44967;48.598;15.650;2024-02-23T00:03:07;96248.97;;;6.27;100.00
59194;BME280;44967;48.598;15.650;2024-02-23T00:05:34;96243.50;;;6.31;100.00
59194;BME280;44967;48.598;15.650;2024-02-23T00:07:59;96244.28;;;6.33;99.86
59194;BME280;44967;48.598;15.650;2024-02-23T00:10:25;96237.31;;;6.32;100.00
59194;BME280;44967;48.598;15.650;2024-02-23T00:12:51;96239.94;;;6.32;100.00
59194;BME280;44967;48.598;15.650;2024-02-23T00:15:17;96242.22;;;6.21;100.00
59194;BME280;44967;48.598;15.650;2024-02-23T00:17:43;96231.72;;;6.21;100.00
59194;BME280;44967;48.598;15.650;2024-02-23T00:20:09;96237.69;;;6.25;100.00
59194;BME280;44967;48.598;15.650;2024-02-23T00:22:37;96238.13;;;6.15;100.00
59194;BME280;44967;48.598;15.650;2024-02-23T00:25:03;96231.03;;;6.18;100.00
59194;BME280;44967;48.598;15.650;2024-02-23T00:27:29;96238.69;;;6.22;100.00
59194;BME280;44967;48.598;15.650;2024-02-23T00:29:54;96239.69;;;6.20;100.00
59194;BME280;44967;48.598;15.650;2024-02-23T00:32:20;96230.09;;;6.19;100.00
59194;BME280;44967;48.598;15.650;2024-02-23T00:34:46;96241.31;;;6.03;100.00
59194;BME280;44967;48.598;15.650;2024-02-23T00:37:12;96236.06;;;6.03;100.00
59194;BME280;44967;48.598;15.650;2024-02-23T00:39:38;96242.78;;;6.09;100.00
59194;BME280;44967;48.598;15.650;2024-02-23T00:42:03;96233.72;;;6.16;100.00
59194;BME280;44967;48.598;15.650;2024-02-23T00:44:29;96232.72;;;6.19;100.00
59194;BME280;44967;48.598;15.650;2024-02-23T00:46:55;96223.00;;;6.21;100.00
59194;BME280;44967;48.598;15.650;2024-02-23T00:49:23;96235.16;;;6.23;100.00
59194;BME280;44967;48.598;15.650;2024-02-23T00:51:49;96227.53;;;6.17;100.00
59194;BME280;44967;48.598;15.650;2024-02-23T00:54:15;96219.63;;;6.19;100.00
59194;BME280;44967;48.598;15.650;2024-02-23T00:56:40;96220.63;;;6.16;100.00
59194;BME280;44967;48.598;15.650;2024-02-23T00:59:06;96222.31;;;6.17;100.00
59194;BME280;44967;48.598;15.650;2024-02-23T01:01:32;96218.00;;;6.16;100.00
59194;BME280;44967;48.598;15.650;2024-02-23T01:03:58;96218.41;;;6.07;100.00
59194;BME280;44967;48.598;15.650;2024-02-23T01:06:24;96208.78;;;6.07;100.00
59194;BME280;44967;48.598;15.650;2024-02-23T01:08:50;96210.81;;;6.01;100.00
59194;BME280;44967;48.598;15.650;2024-02-23T01:11:17;96209.69;;;6.06;100.00
59194;BME280;44967;48.598;15.650;2024-02-23T01:13:43;96207.06;;;6.06;100.00
59194;BME280;44967;48.598;15.650;2024-02-23T01:16:09;96218.56;;;6.04;100.00
59194;BME280;44967;48.598;15.650;2024-02-23T01:18:35;96215.16;;;6.02;100.00
59194;BME280;44967;48.598;15.650;2024-02-23T01:21:01;96203.81;;;6.01;100.00
59194;BME280;44967;48.598;15.650;2024-02-23T01:23:26;96204.50;;;6.05;100.00
59194;BME280;44967;48.598;15.650;2024-02-23T01:25:52;96209.56;;;6.09;100.00
59194;BME280;44967;48.598;15.650;2024-02-23T01:28:18;96212.13;;;6.11;100.00
59194;BME280;44967;48.598;15.650;2024-02-23T01:30:44;96204.25;;;6.11;100.00
59194;BME280;44967;48.598;15.650;2024-02-23T01:33:10;96216.28;;;6.15;100.00
59194;BME280;44967;48.598;15.650;2024-02-23T01:35:36;96219.88;;;6.12;100.00
59194;BME280;44967;48.598;15.650;2024-02-23T01:38:02;96221.75;;;6.10;100.00
59194;BME280;44967;48.598;15.650;2024-02-23T01:40:28;96213.72;;;6.13;100.00
59194;BME280;44967;48.598;15.650;2024-02-23T01:43:03;96200.56;;;6.15;100.00
59194;BME280;44967;48.598;15.650;2024-02-23T01:45:30;96203.03;;;6.18;100.00
59194;BME280;44967;48.598;15.650;2024-02-23T01:47:57;96204.53;;;6.24;100.00
59194;BME280;44967;48.598;15.650;2024-02-23T01:50:25;96209.78;;;6.24;100.00
59194;BME280;44967;48.598;15.650;2024-02-23T01:52:51;96207.38;;;6.19;100.00
59194;BME280;44967;48.598;15.650;2024-02-23T01:55:20;96205.72;;;6.16;100.00
59194;BME280;44967;48.598;15.650;2024-02-23T01:57:46;96199.66;;;6.16;100.00
59194;BME280;44967;48.598;15.650;2024-02-23T02:00:16;96209.91;;;6.21;100.00
59194;BME280;44967;48.598;15.650;2024-02-23T02:02:43;96206.78;;;6.12;100.00
59194;BME280;44967;48.598;15.650;2024-02-23T02:05:09;96216.16;;;6.18;100.00
59194;BME280;44967;48.598;15.650;2024-02-23T02:07:36;96219.56;;;6.20;100.00
59194;BME280;44967;48.598;15.650;2024-02-23T02:10:04;96216.69;;;6.25;100.00
59194;BME280;44967;48.598;15.650;2024-02-23T02:12:32;96219.41;;;6.23;100.00
59194;BME280;44967;48.598;15.650;2024-02-23T02:14:58;96216.84;;;6.22;100.00
59194;BME280;44967;48.598;15.650;2024-02-23T02:17:26;96222.25;;;6.19;100.00
59194;BME280;44967;48.598;15.650;2024-02-23T02:19:52;96228.59;;;6.13;100.00
59194;BME280;44967;48.598;15.650;2024-02-23T02:22:19;96229.88;;;6.04;100.00
59194;BME280;44967;48.598;15.650;2024-02-23T02:24:44;96230.63;;;6.08;100.00
59194;BME280;44967;48.598;15.650;2024-02-23T02:27:12;96234.81;;;6.12;100.00
59194;BME280;44967;48.598;15.650;2024-02-23T02:29:38;96244.22;;;6.16;100.00
59194;BME280;44967;48.598;15.650;2024-02-23T02:32:04;96263.00;;;6.07;100.00
59194;BME280;44967;48.598;15.650;2024-02-23T02:34:30;96274.38;;;6.06;100.00
59194;BME280;44967;48.598;15.650;2024-02-23T02:36:56;96275.09;;;6.09;100.00
59194;BME280;44967;48.598;15.650;2024-02-23T02:39:22;96292.25;;;6.16;100.00
59194;BME280;44967;48.598;15.650;2024-02-23T02:41:48;96310.94;;;6.09;100.00
59194;BME280;44967;48.598;15.650;2024-02-23T02:44:14;96305.13;;;6.02;100.00
59194;BME280;44967;48.598;15.650;2024-02-23T02:46:41;96313.56;;;6.09;100.00
59194;BME280;44967;48.598;15.650;2024-02-23T02:49:07;96321.19;;;6.15;100.00
59194;BME280;44967;48.598;15.650;2024-02-23T02:51:33;96319.06;;;6.23;100.00
59194;BME280;44967;48.598;15.650;2024-02-23T02:53:59;96324.94;;;6.28;100.00
59194;BME280;44967;48.598;15.650;2024-02-23T02:56:25;96339.59;;;6.32;100.00
59194;BME280;44967;48.598;15.650;2024-02-23T02:58:51;96330.91;;;6.32;100.00
59194;BME280;44967;48.598;15.650;2024-02-23T03:01:17;96339.50;;;6.35;100.00
59194;BME280;44967;48.598;15.650;2024-02-23T03:03:42;96351.63;;;6.38;100.00
59194;BME280;44967;48.598;15.650;2024-02-23T03:06:08;96347.16;;;6.40;100.00
59194;BME280;44967;48.598;15.650;2024-02-23T03:08:35;96352.47;;;6.38;100.00
59194;BME280;44967;48.598;15.650;2024-02-23T03:11:00;96353.53;;;6.34;100.00
59194;BME280;44967;48.598;15.650;2024-02-23T03:13:26;96360.75;;;6.29;100.00
59194;BME280;44967;48.598;15.650;2024-02-23T03:15:52;96359.81;;;6.30;100.00
59194;BME280;44967;48.598;15.650;2024-02-23T03:18:17;96373.78;;;6.31;100.00
59194;BME280;44967;48.598;15.650;2024-02-23T03:20:43;96365.94;;;6.31;100.00
59194;BME280;44967;48.598;15.650;2024-02-23T03:23:10;96369.53;;;6.28;100.00
59194;BME280;44967;48.598;15.650;2024-02-23T03:25:35;96382.56;;;6.30;100.00
59194;BME280;44967;48.598;15.650;2024-02-23T03:28:01;96382.38;;;6.34;100.00
59194;BME280;44967;48.598;15.650;2024-02-23T03:30:27;96385.16;;;6.31;100.00
59194;BME280;44967;48.598;15.650;2024-02-23T03:32:53;96390.19;;;6.36;100.00
59194;BME280;44967;48.598;15.650;2024-02-23T03:35:19;96394.63;;;6.34;100.00
59194;BME280;44967;48.598;15.650;2024-02-23T03:37:44;96391.09;;;6.35;100.00
59194;BME280;44967;48.598;15.650;2024-02-23T03:40:10;96390.97;;;6.38;100.00
59194;BME280;44967;48.598;15.650;2024-02-23T03:42:36;96389.13;;;6.40;100.00
59194;BME280;44967;48.598;15.650;2024-02-23T03:45:03;96393.63;;;6.36;100.00
59194;BME280;44967;48.598;15.650;2024-02-23T03:47:29;96397.13;;;6.37;100.00
59194;BME280;44967;48.598;15.650;2024-02-23T03:49:56;96399.88;;;6.34;100.00
59194;BME280;44967;48.598;15.650;2024-02-23T03:52:21;96399.88;;;6.34;100.00
59194;BME280;44967;48.598;15.650;2024-02-23T03:54:48;96399.94;;;6.32;100.00
59194;BME280;44967;48.598;15.650;2024-02-23T03:57:14;96400.88;;;6.31;100.00
59194;BME280;44967;48.598;15.650;2024-02-23T03:59:55;96407.81;;;6.32;100.00
59194;BME280;44967;48.598;15.650;2024-02-23T04:02:21;96405.53;;;6.25;100.00
59194;BME280;44967;48.598;15.650;2024-02-23T04:04:47;96411.47;;;6.28;100.00
59194;BME280;44967;48.598;15.650;2024-02-23T04:07:14;96423.88;;;6.25;100.00
59194;BME280;44967;48.598;15.650;2024-02-23T04:09:40;96431.03;;;6.21;100.00
59194;BME280;44967;48.598;15.650;2024-02-23T04:12:06;96436.41;;;6.18;100.00
59194;BME280;44967;48.598;15.650;2024-02-23T04:14:35;96442.47;;;6.20;100.00
59194;BME280;44967;48.598;15.650;2024-02-23T04:17:03;96443.25;;;6.22;100.00
59194;BME280;44967;48.598;15.650;2024-02-23T04:19:29;96448.63;;;6.19;100.00
59194;BME280;44967;48.598;15.650;2024-02-23T04:21:54;96447.03;;;6.15;100.00
59194;BME280;44967;48.598;15.650;2024-02-23T04:24:20;96447.75;;;6.19;100.00
59194;BME280;44967;48.598;15.650;2024-02-23T04:26:46;96448.63;;;6.19;100.00
59194;BME280;44967;48.598;15.650;2024-02-23T04:29:12;96448.75;;;6.16;100.00
59194;BME280;44967;48.598;15.650;2024-02-23T04:31:38;96459.97;;;6.20;100.00
59194;BME280;44967;48.598;15.650;2024-02-23T04:34:04;96457.25;;;6.21;100.00
59194;BME280;44967;48.598;15.650;2024-02-23T04:36:29;96462.50;;;6.21;100.00
59194;BME280;44967;48.598;15.650;2024-02-23T04:38:55;96466.88;;;6.21;100.00
59194;BME280;44967;48.598;15.650;2024-02-23T04:41:21;96465.94;;;6.23;100.00
59194;BME280;44967;48.598;15.650;2024-02-23T04:43:47;96473.13;;;6.18;100.00
59194;BME280;44967;48.598;15.650;2024-02-23T04:46:13;96473.94;;;6.20;100.00
59194;BME280;44967;48.598;15.650;2024-02-23T04:48:39;96477.31;;;6.22;100.00
59194;BME280;44967;48.598;15.650;2024-02-23T04:51:05;96475.63;;;6.21;100.00
59194;BME280;44967;48.598;15.650;2024-02-23T04:53:31;96480.63;;;6.27;100.00
59194;BME280;44967;48.598;15.650;2024-02-23T04:56:01;96478.97;;;6.25;100.00
59194;BME280;44967;48.598;15.650;2024-02-23T04:58:26;96487.75;;;6.24;100.00
59194;BME280;44967;48.598;15.650;2024-02-23T05:00:52;96485.88;;;6.27;100.00
59194;BME280;44967;48.598;15.650;2024-02-23T05:03:18;96488.63;;;6.24;100.00
59194;BME280;44967;48.598;15.650;2024-02-23T05:05:43;96492.94;;;6.25;100.00
59194;BME280;44967;48.598;15.650;2024-02-23T05:08:09;96497.13;;;6.29;100.00
59194;BME280;44967;48.598;15.650;2024-02-23T05:10:35;96493.13;;;6.21;100.00
59194;BME280;44967;48.598;15.650;2024-02-23T05:13:00;96495.41;;;6.28;100.00
59194;BME280;44967;48.598;15.650;2024-02-23T05:15:26;96496.34;;;6.27;100.00
59194;BME280;44967;48.598;15.650;2024-02-23T05:17:52;96483.25;;;6.27;100.00
59194;BME280;44967;48.598;15.650;2024-02-23T05:20:17;96498.84;;;6.30;100.00
59194;BME280;44967;48.598;15.650;2024-02-23T05:22:44;96505.91;;;6.28;100.00
59194;BME280;44967;48.598;15.650;2024-02-23T05:25:09;96505.06;;;6.28;100.00
59194;BME280;44967;48.598;15.650;2024-02-23T05:27:35;96513.19;;;6.22;100.00
59194;BME280;44967;48.598;15.650;2024-02-23T05:30:01;96510.50;;;6.23;100.00
59194;BME280;44967;48.598;15.650;2024-02-23T05:32:26;96511.47;;;6.21;100.00
59194;BME280;44967;48.598;15.650;2024-02-23T05:34:52;96514.91;;;6.23;100.00
59194;BME280;44967;48.598;15.650;2024-02-23T05:37:19;96519.16;;;6.25;100.00
59194;BME280;44967;48.598;15.650;2024-02-23T05:39:45;96520.91;;;6.25;100.00
59194;BME280;44967;48.598;15.650;2024-02-23T05:42:14;96523.53;;;6.25;100.00
59194;BME280;44967;48.598;15.650;2024-02-23T05:44:43;96530.44;;;6.27;100.00
59194;BME280;44967;48.598;15.650;2024-02-23T05:47:10;96525.94;;;6.31;100.00
59194;BME280;44967;48.598;15.650;2024-02-23T05:49:36;96528.34;;;6.35;100.00
59194;BME280;44967;48.598;15.650;2024-02-23T05:52:02;96535.22;;;6.38;100.00
59194;BME280;44967;48.598;15.650;2024-02-23T05:54:28;96531.22;;;6.29;100.00
59194;BME280;44967;48.598;15.650;2024-02-23T05:56:53;96538.22;;;6.29;100.00
59194;BME280;44967;48.598;15.650;2024-02-23T05:59:19;96544.88;;;6.37;100.00
59194;BME280;44967;48.598;15.650;2024-02-23T06:01:45;96537.53;;;6.45;100.00
59194;BME280;44967;48.598;15.650;2024-02-23T06:04:10;96535.81;;;6.44;100.00
59194;BME280;44967;48.598;15.650;2024-02-23T06:06:36;96549.66;;;6.48;100.00
59194;BME280;44967;48.598;15.650;2024-02-23T06:09:03;96551.31;;;6.50;100.00
59194;BME280;44967;48.598;15.650;2024-02-23T06:11:29;96554.84;;;6.49;100.00
59194;BME280;44967;48.598;15.650;2024-02-23T06:13:55;96560.09;;;6.49;100.00
59194;BME280;44967;48.598;15.650;2024-02-23T06:16:21;96551.56;;;6.44;100.00
59194;BME280;44967;48.598;15.650;2024-02-23T06:18:47;96562.84;;;6.46;100.00
59194;BME280;44967;48.598;15.650;2024-02-23T06:21:14;96567.19;;;6.47;100.00
59194;BME280;44967;48.598;15.650;2024-02-23T06:23:41;96561.16;;;6.45;100.00
59194;BME280;44967;48.598;15.650;2024-02-23T06:26:07;96562.72;;;6.49;100.00
59194;BME280;44967;48.598;15.650;2024-02-23T06:28:33;96566.97;;;6.52;100.00
59194;BME280;44967;48.598;15.650;2024-02-23T06:30:58;96566.22;;;6.50;100.00
59194;BME280;44967;48.598;15.650;2024-02-23T06:33:24;96570.59;;;6.49;100.00
59194;BME280;44967;48.598;15.650;2024-02-23T06:35:50;96571.41;;;6.51;100.00
59194;BME280;44967;48.598;15.650;2024-02-23T06:38:18;96575.78;;;6.51;100.00
59194;BME280;44967;48.598;15.650;2024-02-23T06:40:43;96579.91;;;6.56;100.00
59194;BME280;44967;48.598;15.650;2024-02-23T06:43:09;96580.03;;;6.53;100.00
59194;BME280;44967;48.598;15.650;2024-02-23T06:45:34;96581.91;;;6.51;100.00
59194;BME280;44967;48.598;15.650;2024-02-23T06:48:00;96581.75;;;6.54;100.00
59194;BME280;44967;48.598;15.650;2024-02-23T06:50:26;96588.78;;;6.54;100.00
59194;BME280;44967;48.598;15.650;2024-02-23T06:52:51;96593.84;;;6.58;100.00
59194;BME280;44967;48.598;15.650;2024-02-23T06:55:17;96593.66;;;6.63;100.00
59194;BME280;44967;48.598;15.650;2024-02-23T06:57:43;96593.16;;;6.53;100.00
59194;BME280;44967;48.598;15.650;2024-02-23T07:00:09;96603.41;;;6.59;100.00
59194;BME280;44967;48.598;15.650;2024-02-23T07:02:35;96606.88;;;6.60;100.00
59194;BME280;44967;48.598;15.650;2024-02-23T07:05:03;96600.84;;;6.58;100.00
59194;BME280;44967;48.598;15.650;2024-02-23T07:07:30;96607.88;;;6.57;100.00
59194;BME280;44967;48.598;15.650;2024-02-23T07:09:57;96601.56;;;6.61;100.00
59194;BME280;44967;48.598;15.650;2024-02-23T07:12:23;96607.72;;;6.60;100.00
59194;BME280;44967;48.598;15.650;2024-02-23T07:14:48;96602.47;;;6.60;100.00
59194;BME280;44967;48.598;15.650;2024-02-23T07:17:17;96628.34;;;6.70;100.00
59194;BME280;44967;48.598;15.650;2024-02-23T07:19:44;96618.22;;;6.60;100.00
59194;BME280;44967;48.598;15.650;2024-02-23T07:22:10;96620.97;;;6.57;100.00
59194;BME280;44967;48.598;15.650;2024-02-23T07:24:40;96622.56;;;6.61;100.00
59194;BME280;44967;48.598;15.650;2024-02-23T07:27:06;96642.34;;;6.70;100.00
59194;BME280;44967;48.598;15.650;2024-02-23T07:29:31;96635.81;;;6.58;100.00
59194;BME280;44967;48.598;15.650;2024-02-23T07:31:57;96637.41;;;6.62;100.00
59194;BME280;44967;48.598;15.650;2024-02-23T07:34:23;96627.75;;;6.63;100.00
59194;BME280;44967;48.598;15.650;2024-02-23T07:36:52;96633.75;;;6.67;100.00
59194;BME280;44967;48.598;15.650;2024-02-23T07:39:19;96653.88;;;6.66;100.00
59194;BME280;44967;48.598;15.650;2024-02-23T07:41:45;96656.50;;;6.66;100.00
59194;BME280;44967;48.598;15.650;2024-02-23T07:44:10;96660.88;;;6.66;100.00
59194;BME280;44967;48.598;15.650;2024-02-23T07:46:36;96656.50;;;6.66;100.00
59194;BME280;44967;48.598;15.650;2024-02-23T07:49:02;96665.22;;;6.67;100.00
59194;BME280;44967;48.598;15.650;2024-02-23T07:51:28;96662.28;;;6.74;100.00
59194;BME280;44967;48.598;15.650;2024-02-23T07:53:54;96668.25;;;6.78;100.00
59194;BME280;44967;48.598;15.650;2024-02-23T07:56:20;96676.13;;;6.78;100.00
59194;BME280;44967;48.598;15.650;2024-02-23T07:58:46;96671.66;;;6.80;100.00
59194;BME280;44967;48.598;15.650;2024-02-23T08:01:13;96672.41;;;6.83;100.00
59194;BME280;44967;48.598;15.650;2024-02-23T08:03:40;96684.59;;;6.84;100.00
59194;BME280;44967;48.598;15.650;2024-02-23T08:06:06;96696.75;;;6.87;100.00
59194;BME280;44967;48.598;15.650;2024-02-23T08:08:32;96681.78;;;6.89;100.00
59194;BME280;44967;48.598;15.650;2024-02-23T08:11:03;96687.75;;;6.92;100.00
59194;BME280;44967;48.598;15.650;2024-02-23T08:13:29;96696.34;;;6.96;100.00
59194;BME280;44967;48.598;15.650;2024-02-23T08:15:54;96708.41;;;7.01;100.00
59194;BME280;44967;48.598;15.650;2024-02-23T08:18:20;96700.47;;;7.03;100.00
59194;BME280;44967;48.598;15.650;2024-02-23T08:20:48;96698.81;;;7.00;100.00
59194;BME280;44967;48.598;15.650;2024-02-23T08:23:13;96715.41;;;7.01;100.00
59194;BME280;44967;48.598;15.650;2024-02-23T08:25:39;96703.88;;;7.05;100.00
59194;BME280;44967;48.598;15.650;2024-02-23T08:28:05;96708.88;;;7.11;100.00
59194;BME280;44967;48.598;15.650;2024-02-23T08:30:31;96708.78;;;7.13;100.00
59194;BME280;44967;48.598;15.650;2024-02-23T08:32:57;96721.06;;;7.12;100.00
59194;BME280;44967;48.598;15.650;2024-02-23T08:35:23;96727.97;;;7.15;100.00
59194;BME280;44967;48.598;15.650;2024-02-23T08:37:49;96722.50;;;7.19;100.00
59194;BME280;44967;48.598;15.650;2024-02-23T08:40:14;96725.09;;;7.21;100.00
59194;BME280;44967;48.598;15.650;2024-02-23T08:42:40;96719.09;;;7.17;100.00
59194;BME280;44967;48.598;15.650;2024-02-23T08:45:06;96718.84;;;7.23;100.00
59194;BME280;44967;48.598;15.650;2024-02-23T08:47:32;96714.56;;;7.21;100.00
59194;BME280;44967;48.598;15.650;2024-02-23T08:50:01;96719.50;;;7.28;100.00
59194;BME280;44967;48.598;15.650;2024-02-23T08:52:28;96719.25;;;7.34;100.00
59194;BME280;44967;48.598;15.650;2024-02-23T08:54:53;96708.47;;;7.40;100.00
59194;BME280;44967;48.598;15.650;2024-02-23T08:57:19;96722.13;;;7.48;100.00
59194;BME280;44967;48.598;15.650;2024-02-23T08:59:46;96721.66;;;7.59;100.00
59194;BME280;44967;48.598;15.650;2024-02-23T09:02:12;96726.56;;;7.67;100.00
59194;BME280;44967;48.598;15.650;2024-02-23T09:04:38;96733.19;;;7.75;100.00
59194;BME280;44967;48.598;15.650;2024-02-23T09:07:04;96739.16;;;7.79;100.00
59194;BME280;44967;48.598;15.650;2024-02-23T09:09:30;96738.00;;;7.86;100.00
59194;BME280;44967;48.598;15.650;2024-02-23T09:11:55;96745.59;;;7.92;100.00
59194;BME280;44967;48.598;15.650;2024-02-23T09:14:21;96749.03;;;7.94;100.00
59194;BME280;44967;48.598;15.650;2024-02-23T09:16:47;96756.13;;;7.92;100.00
59194;BME280;44967;48.598;15.650;2024-02-23T09:19:16;96751.00;;;7.89;100.00
59194;BME280;44967;48.598;15.650;2024-02-23T09:21:42;96737.84;;;7.89;99.81
59194;BME280;44967;48.598;15.650;2024-02-23T09:24:08;96744.84;;;7.90;99.81
59194;BME280;44967;48.598;15.650;2024-02-23T09:26:33;96744.88;;;7.88;100.00
59194;BME280;44967;48.598;15.650;2024-02-23T09:28:59;96744.69;;;7.93;100.00
59194;BME280;44967;48.598;15.650;2024-02-23T09:31:25;96742.81;;;7.95;99.80
59194;BME280;44967;48.598;15.650;2024-02-23T09:33:51;96745.47;;;7.95;100.00
59194;BME280;44967;48.598;15.650;2024-02-23T09:36:17;96756.84;;;7.95;99.91
59194;BME280;44967;48.598;15.650;2024-02-23T09:38:43;96770.00;;;7.95;100.00
59194;BME280;44967;48.598;15.650;2024-02-23T09:41:24;96764.16;;;7.89;99.09
59194;BME280;44967;48.598;15.650;2024-02-23T09:43:50;96763.97;;;7.93;99.63
59194;BME280;44967;48.598;15.650;2024-02-23T09:46:17;96769.78;;;8.00;99.33
59194;BME280;44967;48.598;15.650;2024-02-23T09:48:43;96757.56;;;7.99;97.81
59194;BME280;44967;48.598;15.650;2024-02-23T09:51:13;96760.13;;;8.00;96.67
59194;BME280;44967;48.598;15.650;2024-02-23T09:53:41;96760.97;;;8.01;96.55
59194;BME280;44967;48.598;15.650;2024-02-23T09:56:08;96755.56;;;8.04;95.93
59194;BME280;44967;48.598;15.650;2024-02-23T09:58:36;96758.06;;;8.07;96.16
59194;BME280;44967;48.598;15.650;2024-02-23T10:01:03;96753.72;;;8.06;95.10
59194;BME280;44967;48.598;15.650;2024-02-23T10:03:30;96762.13;;;8.14;95.48
59194;BME280;44967;48.598;15.650;2024-02-23T10:05:59;96758.31;;;8.21;94.12
59194;BME280;44967;48.598;15.650;2024-02-23T10:08:28;96758.16;;;8.24;94.56
59194;BME280;44967;48.598;15.650;2024-02-23T10:10:54;96768.38;;;8.32;94.81
59194;BME280;44967;48.598;15.650;2024-02-23T10:13:22;96750.94;;;8.29;86.73
59194;BME280;44967;48.598;15.650;2024-02-23T10:15:51;96748.69;;;8.20;84.85
59194;BME280;44967;48.598;15.650;2024-02-23T10:18:18;96749.41;;;8.24;84.82
59194;BME280;44967;48.598;15.650;2024-02-23T10:20:44;96752.81;;;8.26;85.37
59194;BME280;44967;48.598;15.650;2024-02-23T10:23:10;96753.81;;;8.23;85.77
59194;BME280;44967;48.598;15.650;2024-02-23T10:25:36;96761.56;;;8.26;86.93
59194;BME280;44967;48.598;15.650;2024-02-23T10:28:03;96753.22;;;8.37;86.79
59194;BME280;44967;48.598;15.650;2024-02-23T10:30:29;96757.03;;;8.30;80.09
59194;BME280;44967;48.598;15.650;2024-02-23T10:32:56;96754.72;;;8.22;77.32
59194;BME280;44967;48.598;15.650;2024-02-23T10:35:23;96761.84;;;8.20;78.79
59194;BME280;44967;48.598;15.650;2024-02-23T10:37:52;96753.22;;;8.37;83.59
59194;BME280;44967;48.598;15.650;2024-02-23T10:40:20;96759.03;;;8.43;84.21
59194;BME280;44967;48.598;15.650;2024-02-23T10:42:49;96765.56;;;8.53;78.52
59194;BME280;44967;48.598;15.650;2024-02-23T10:45:20;96751.66;;;8.51;77.31
59194;BME280;44967;48.598;15.650;2024-02-23T10:47:53;96752.63;;;8.68;79.27
59194;BME280;44967;48.598;15.650;2024-02-23T10:50:21;96751.63;;;8.70;79.95
59194;BME280;44967;48.598;15.650;2024-02-23T10:52:48;96749.47;;;8.78;80.22
59194;BME280;44967;48.598;15.650;2024-02-23T10:55:14;96744.00;;;8.83;80.36
59194;BME280;44967;48.598;15.650;2024-02-23T10:57:40;96750.03;;;8.85;78.17
59194;BME280;44967;48.598;15.650;2024-02-23T11:00:08;96741.34;;;8.83;76.26
59194;BME280;44967;48.598;15.650;2024-02-23T11:02:49;96740.22;;;8.88;75.81
59194;BME280;44967;48.598;15.650;2024-02-23T11:05:18;96754.03;;;8.75;74.54
59194;BME280;44967;48.598;15.650;2024-02-23T11:07:47;96764.28;;;8.81;75.36
59194;BME280;44967;48.598;15.650;2024-02-23T11:10:15;96756.31;;;8.82;77.05
59194;BME280;44967;48.598;15.650;2024-02-23T11:12:41;96758.28;;;8.77;75.78
59194;BME280;44967;48.598;15.650;2024-02-23T11:15:07;96749.91;;;8.69;74.18
59194;BME280;44967;48.598;15.650;2024-02-23T11:17:35;96746.50;;;8.67;73.27
59194;BME280;44967;48.598;15.650;2024-02-23T11:20:04;96736.97;;;8.65;71.71
59194;BME280;44967;48.598;15.650;2024-02-23T11:22:35;96730.66;;;8.69;71.43
59194;BME280;44967;48.598;15.650;2024-02-23T11:25:05;96736.84;;;8.68;71.14
59194;BME280;44967;48.598;15.650;2024-02-23T11:27:32;96740.66;;;8.79;71.25
59194;BME280;44967;48.598;15.650;2024-02-23T11:30:04;96738.28;;;8.73;70.43
59194;BME280;44967;48.598;15.650;2024-02-23T11:35:16;96745.97;;;8.61;73.04
59194;BME280;44967;48.598;15.650;2024-02-23T11:37:54;96744.19;;;8.61;74.37
59194;BME280;44967;48.598;15.650;2024-02-23T11:40:30;96739.75;;;8.62;76.08
59194;BME280;44967;48.598;15.650;2024-02-23T11:42:56;96736.69;;;8.71;75.42
59194;BME280;44967;48.598;15.650;2024-02-23T11:45:23;96730.34;;;8.75;75.97
59194;BME280;44967;48.598;15.650;2024-02-23T11:47:49;96725.94;;;8.75;75.40
59194;BME280;44967;48.598;15.650;2024-02-23T11:50:14;96740.09;;;8.73;75.20
59194;BME280;44967;48.598;15.650;2024-02-23T11:52:42;96738.38;;;8.72;75.87
59194;BME280;44967;48.598;15.650;2024-02-23T11:55:08;96722.00;;;8.65;74.60
59194;BME280;44967;48.598;15.650;2024-02-23T11:57:34;96716.19;;;8.59;74.22
59194;BME280;44967;48.598;15.650;2024-02-23T12:00:04;96714.63;;;8.55;74.81
59194;BME280;44967;48.598;15.650;2024-02-23T12:02:35;96718.91;;;8.57;76.38
59194;BME280;44967;48.598;15.650;2024-02-23T12:05:01;96719.47;;;8.64;76.01
59194;BME280;44967;48.598;15.650;2024-02-23T12:07:29;96708.25;;;8.60;75.89
59194;BME280;44967;48.598;15.650;2024-02-23T12:09:56;96701.69;;;8.69;74.93
59194;BME280;44967;48.598;15.650;2024-02-23T12:12:25;96704.78;;;8.77;75.90
59194;BME280;44967;48.598;15.650;2024-02-23T12:14:52;96705.50;;;8.80;76.41
59194;BME280;44967;48.598;15.650;2024-02-23T12:17:18;96704.22;;;8.70;76.28
59194;BME280;44967;48.598;15.650;2024-02-23T12:19:44;96699.97;;;8.68;75.91
59194;BME280;44967;48.598;15.650;2024-02-23T12:22:12;96695.41;;;8.71;76.36
59194;BME280;44967;48.598;15.650;2024-02-23T12:24:40;96685.88;;;8.69;75.04
59194;BME280;44967;48.598;15.650;2024-02-23T12:27:07;96675.19;;;8.72;75.30
59194;BME280;44967;48.598;15.650;2024-02-23T12:29:33;96681.59;;;8.66;74.77
59194;BME280;44967;48.598;15.650;2024-02-23T12:32:07;96686.50;;;8.74;76.08
59194;BME280;44967;48.598;15.650;2024-02-23T12:34:33;96681.81;;;8.62;75.32
59194;BME280;44967;48.598;15.650;2024-02-23T12:37:02;96668.09;;;8.55;75.17
59194;BME280;44967;48.598;15.650;2024-02-23T12:39:29;96662.78;;;8.74;76.32
59194;BME280;44967;48.598;15.650;2024-02-23T12:41:54;96669.59;;;8.78;76.05
59194;BME280;44967;48.598;15.650;2024-02-23T12:44:22;96668.38;;;8.85;76.87
59194;BME280;44967;48.598;15.650;2024-02-23T12:46:48;96677.97;;;8.86;75.68
59194;BME280;44967;48.598;15.650;2024-02-23T12:49:13;96675.28;;;8.87;76.06
59194;BME280;44967;48.598;15.650;2024-02-23T12:51:39;96671.63;;;8.73;75.65